Altamira, Brazil
Current Conditions -  °F | °C
As of 3:00 PM on Sunday 21 Dec 2014 (Local Time) from SBHT Reporting Station
Broken Clouds Broken Clouds  
Wind Chill: 91°   Ceiling: 3000
Heat Index: 102°   Visibility: 6mi
Dew Point: 75°   Wind: 5mph
Humidity: 59%   Direction: 110°ESE
Pressure: 29.8"   Gusts: NA
Location:  3.2°S, 52.21°W
Report Text: SBHT 211800Z 11004KT 9999 BKN030 33/24 Q1009
Loading
Personal Weather Stations






























Interactive Weather Map New forecast layout! Learn more

10-Day Weather Forecast

Advertisements
Track Severe Weather on mobile